createdAt,value
2022-07-25T00:00:17.176Z,100981.16
2022-07-25T00:02:46.130Z,100985.94
2022-07-25T00:05:14.051Z,100984.78
2022-07-25T00:07:41.979Z,100981.75
2022-07-25T00:10:10.966Z,100972.72
2022-07-25T00:12:39.317Z,100981.56
2022-07-25T00:15:08.371Z,100980.56
2022-07-25T00:17:37.914Z,100966.47
2022-07-25T00:20:07.771Z,100970.03
2022-07-25T00:22:35.705Z,100971.53
2022-07-25T00:25:03.697Z,100966.44
2022-07-25T00:27:31.719Z,100963.66
2022-07-25T00:29:59.691Z,100955.06
2022-07-25T00:32:27.611Z,100967.78
2022-07-25T00:34:56.941Z,100952.34
2022-07-25T00:37:24.890Z,100951.47
2022-07-25T00:39:52.863Z,100944.22
2022-07-25T00:42:21.775Z,100939.38
2022-07-25T00:44:49.728Z,100942.78
2022-07-25T00:47:17.702Z,100936.53
2022-07-25T00:49:45.626Z,100938.69
2022-07-25T00:52:15.332Z,100931.75
2022-07-25T00:54:43.420Z,100926.81
2022-07-25T00:57:12.972Z,100934.84
2022-07-25T00:59:40.973Z,100931.16
2022-07-25T01:02:09.041Z,100933.31
2022-07-25T01:04:37.002Z,100935.16
2022-07-25T01:07:04.951Z,100935.88
2022-07-25T01:09:34.309Z,100935.16
2022-07-25T01:12:02.267Z,100924.03
2022-07-25T01:14:30.199Z,100916.75
2022-07-25T01:16:58.174Z,100924.94
2022-07-25T01:19:26.102Z,100919.28
2022-07-25T01:21:56.372Z,100913.78
2022-07-25T01:24:24.296Z,100912.75
2022-07-25T01:26:52.285Z,100911.28
2022-07-25T01:29:20.259Z,100915.00
2022-07-25T01:31:48.207Z,100918.94
2022-07-25T01:34:16.170Z,100906.44
2022-07-25T01:36:44.147Z,100910.03
2022-07-25T01:39:13.451Z,100902.81
2022-07-25T01:41:41.420Z,100896.97
2022-07-25T01:44:09.753Z,100910.03
2022-07-25T01:46:37.991Z,100901.88
2022-07-25T01:49:06.366Z,100894.34
2022-07-25T01:51:34.358Z,100884.53
2022-07-25T01:54:02.326Z,100889.75
2022-07-25T01:56:32.743Z,100882.84
2022-07-25T01:59:01.343Z,100883.16
2022-07-25T02:01:29.316Z,100872.00
2022-07-25T02:03:57.299Z,100871.03
2022-07-25T02:06:25.258Z,100865.22
2022-07-25T02:08:53.195Z,100862.53
2022-07-25T02:11:21.249Z,100858.34
2022-07-25T02:13:50.551Z,100854.22
2022-07-25T02:16:18.631Z,100857.06
2022-07-25T02:18:47.788Z,100852.88
2022-07-25T02:21:16.486Z,100847.63
2022-07-25T02:23:44.690Z,100849.13
2022-07-25T02:26:13.326Z,100835.09
2022-07-25T02:28:41.955Z,100836.31
2022-07-25T02:31:11.569Z,100832.38
2022-07-25T02:33:39.617Z,100822.78
2022-07-25T02:36:08.341Z,100822.59
2022-07-25T02:38:36.308Z,100819.56
2022-07-25T02:41:04.896Z,100819.00
2022-07-25T02:43:32.847Z,100814.72
2022-07-25T02:46:00.863Z,100814.22
2022-07-25T02:48:30.334Z,100808.72
2022-07-25T02:50:58.345Z,100798.84
2022-07-25T02:53:54.427Z,100809.78
2022-07-25T02:56:14.272Z,100808.13
2022-07-25T02:58:42.896Z,100798.22
2022-07-25T03:01:11.142Z,100796.31
2022-07-25T03:03:40.624Z,100792.88
2022-07-25T03:06:08.830Z,100785.63
2022-07-25T03:08:36.769Z,100780.34
2022-07-25T03:11:04.801Z,100781.44
2022-07-25T03:13:33.350Z,100779.69
2022-07-25T03:16:01.493Z,100777.25
2022-07-25T03:18:29.607Z,100770.50
2022-07-25T03:20:58.985Z,100770.56
2022-07-25T03:23:27.441Z,100776.31
2022-07-25T03:25:55.508Z,100771.06
2022-07-25T03:28:24.739Z,100767.13
2022-07-25T03:30:53.059Z,100760.56
2022-07-25T03:33:21.160Z,100765.25
2022-07-25T03:35:49.150Z,100754.47
2022-07-25T03:38:18.731Z,100748.97
2022-07-25T03:40:46.687Z,100755.31
2022-07-25T03:43:14.682Z,100748.97
2022-07-25T03:45:42.839Z,100751.34
2022-07-25T03:48:10.806Z,100740.34
2022-07-25T03:50:38.707Z,100735.72
2022-07-25T03:53:06.818Z,100741.00
2022-07-25T03:55:40.501Z,100732.31
2022-07-25T03:58:08.582Z,100728.94
2022-07-25T04:00:36.571Z,100731.69
2022-07-25T04:03:05.083Z,100720.28
2022-07-25T04:05:33.078Z,100714.56
2022-07-25T04:08:01.054Z,100708.22
2022-07-25T04:10:29.030Z,100699.16
2022-07-25T04:12:58.346Z,100694.69
2022-07-25T04:15:26.474Z,100694.69
2022-07-25T04:17:54.427Z,100699.78
2022-07-25T04:20:23.443Z,100692.41
2022-07-25T04:22:53.088Z,100696.44
2022-07-25T04:25:21.084Z,100681.06
2022-07-25T04:27:49.075Z,100685.91
2022-07-25T04:30:24.573Z,100673.44
2022-07-25T04:32:52.950Z,100680.84
2022-07-25T04:35:21.077Z,100681.09
2022-07-25T04:37:49.010Z,100669.25
2022-07-25T04:40:17.009Z,100665.47
2022-07-25T04:42:44.931Z,100667.38
2022-07-25T04:45:17.900Z,100666.13
2022-07-25T04:47:47.405Z,100655.56
2022-07-25T04:50:15.489Z,100651.09
2022-07-25T04:52:43.525Z,100648.34
2022-07-25T04:55:11.526Z,100645.78
2022-07-25T04:57:39.508Z,100637.31
2022-07-25T05:00:09.001Z,100637.78
2022-07-25T05:02:37.589Z,100628.91
2022-07-25T05:05:08.563Z,100635.53
2022-07-25T05:07:49.240Z,100627.88
2022-07-25T05:10:17.201Z,100628.94
2022-07-25T05:12:45.113Z,100624.75
2022-07-25T05:15:13.727Z,100625.44
2022-07-25T05:17:41.663Z,100619.69
2022-07-25T05:20:12.476Z,100616.06
2022-07-25T05:22:40.598Z,100623.06
2022-07-25T05:25:10.025Z,100606.50
2022-07-25T05:27:38.358Z,100615.00
2022-07-25T05:30:07.886Z,100609.69
2022-07-25T05:32:35.820Z,100598.41
2022-07-25T05:35:03.914Z,100600.56
2022-07-25T05:37:33.213Z,100600.31
2022-07-25T05:40:01.178Z,100605.84
2022-07-25T05:42:29.108Z,100588.41
2022-07-25T05:44:57.070Z,100588.63
2022-07-25T05:47:25.234Z,100590.94
2022-07-25T05:49:53.213Z,100587.56
2022-07-25T05:52:21.166Z,100579.41
2022-07-25T05:54:50.543Z,100576.19
2022-07-25T05:57:18.683Z,100575.91
2022-07-25T05:59:46.623Z,100575.66
2022-07-25T06:02:14.693Z,100573.50
2022-07-25T06:04:42.759Z,100569.22
2022-07-25T06:07:10.852Z,100559.59
2022-07-25T06:09:42.550Z,100559.72
2022-07-25T06:12:11.875Z,100562.50
2022-07-25T06:14:39.867Z,100567.78
2022-07-25T06:17:07.826Z,100566.47
2022-07-25T06:19:35.823Z,100562.50
2022-07-25T06:22:03.729Z,100570.50
2022-07-25T06:24:31.938Z,100559.53
2022-07-25T06:26:59.939Z,100563.28
2022-07-25T06:29:29.242Z,100568.91
2022-07-25T06:31:57.247Z,100566.47
2022-07-25T06:34:28.693Z,100565.16
2022-07-25T06:36:57.576Z,100569.41
2022-07-25T06:39:25.725Z,100569.84
2022-07-25T06:41:53.647Z,100562.44
2022-07-25T06:44:21.647Z,100562.69
2022-07-25T06:46:51.000Z,100564.16
2022-07-25T06:49:19.032Z,100566.94
2022-07-25T06:51:47.011Z,100559.22
2022-07-25T06:54:15.686Z,100566.63
2022-07-25T06:56:43.631Z,100552.78
2022-07-25T06:59:11.603Z,100548.63
2022-07-25T07:01:39.763Z,100543.44
2022-07-25T07:04:09.540Z,100544.97
2022-07-25T07:06:38.750Z,100524.50
2022-07-25T07:09:07.001Z,100537.94
2022-07-25T07:11:35.155Z,100538.72
2022-07-25T07:14:03.742Z,100533.03
2022-07-25T07:16:32.517Z,100530.41
2022-07-25T07:19:00.579Z,100532.59
2022-07-25T07:21:29.962Z,100529.97
2022-07-25T07:23:57.907Z,100521.03
2022-07-25T07:26:25.877Z,100522.38
2022-07-25T07:28:56.007Z,100520.19
2022-07-25T07:31:24.048Z,100510.31
2022-07-25T07:33:52.052Z,100512.56
2022-07-25T07:36:20.014Z,100507.38
2022-07-25T07:38:49.507Z,100505.19
2022-07-25T07:41:17.476Z,100501.19
2022-07-25T07:43:45.432Z,100495.91
2022-07-25T07:46:13.422Z,100494.78
2022-07-25T07:48:41.444Z,100491.25
2022-07-25T07:51:09.422Z,100487.47
2022-07-25T07:53:54.828Z,100490.69
2022-07-25T07:56:24.279Z,100481.63
2022-07-25T07:58:52.237Z,100476.25
2022-07-25T08:01:20.193Z,100472.00
2022-07-25T08:03:48.272Z,100473.75
2022-07-25T08:06:16.550Z,100469.97
2022-07-25T08:08:44.475Z,100472.41
2022-07-25T08:11:12.412Z,100465.81
2022-07-25T08:13:41.732Z,100472.97
2022-07-25T08:16:11.967Z,100471.66
2022-07-25T08:18:40.003Z,100468.19
2022-07-25T08:21:08.224Z,100459.50
2022-07-25T08:23:38.940Z,100463.22
2022-07-25T08:26:07.706Z,100464.59
2022-07-25T08:28:35.692Z,100458.22
2022-07-25T08:31:05.182Z,100449.66
2022-07-25T08:33:33.240Z,100453.44
2022-07-25T08:36:01.647Z,100451.94
2022-07-25T08:38:30.288Z,100451.84
2022-07-25T08:40:59.872Z,100454.81
2022-07-25T08:43:29.327Z,100444.63
2022-07-25T08:45:57.281Z,100445.13
2022-07-25T08:48:27.796Z,100444.47
2022-07-25T08:50:57.149Z,100450.88
2022-07-25T08:53:34.580Z,100446.94
2022-07-25T08:56:08.136Z,100441.59
2022-07-25T08:58:38.753Z,100440.91
2022-07-25T09:01:07.149Z,100439.25
2022-07-25T09:03:36.708Z,100434.41
2022-07-25T09:06:15.547Z,100435.00
2022-07-25T09:08:52.803Z,100429.34
2022-07-25T09:11:31.293Z,100418.13
2022-07-25T09:14:00.789Z,100423.53
2022-07-25T09:16:32.626Z,100423.94
2022-07-25T09:19:12.744Z,100411.72
2022-07-25T09:21:41.922Z,100415.16
2022-07-25T09:24:11.647Z,100413.25
2022-07-25T09:26:48.036Z,100409.94
2022-07-25T09:29:20.802Z,100413.31
2022-07-25T09:31:48.926Z,100408.38
2022-07-25T09:34:34.743Z,100418.16
2022-07-25T09:37:03.520Z,100411.00
2022-07-25T09:39:36.213Z,100401.28
2022-07-25T09:42:04.790Z,100402.38
2022-07-25T09:44:32.736Z,100398.28
2022-07-25T09:47:11.974Z,100396.84
2022-07-25T09:49:43.855Z,100398.06
2022-07-25T09:52:12.752Z,100400.47
2022-07-25T09:54:41.246Z,100399.94
2022-07-25T09:57:09.201Z,100400.38
2022-07-25T09:59:38.157Z,100397.66
2022-07-25T10:02:10.136Z,100399.34
2022-07-25T10:04:51.159Z,100399.69
2022-07-25T10:07:22.087Z,100393.00
2022-07-25T10:09:52.174Z,100399.38
2022-07-25T10:12:21.462Z,100403.25
2022-07-25T10:15:05.429Z,100395.69
2022-07-25T10:17:33.433Z,100394.00
2022-07-25T10:20:04.094Z,100389.28
2022-07-25T10:22:55.770Z,100385.94
2022-07-25T10:25:24.529Z,100388.72
2022-07-25T10:28:00.145Z,100386.25
2022-07-25T10:30:29.948Z,100390.16
2022-07-25T10:32:59.402Z,100386.78
2022-07-25T10:35:29.271Z,100378.16
2022-07-25T10:37:59.066Z,100370.91
2022-07-25T10:40:29.838Z,100377.09
2022-07-25T10:43:02.075Z,100370.88
2022-07-25T10:45:39.518Z,100369.69
2022-07-25T10:48:12.339Z,100365.50
2022-07-25T10:50:56.327Z,100362.72
2022-07-25T10:53:35.467Z,100361.56
2022-07-25T10:56:10.827Z,100359.97
2022-07-25T10:58:47.076Z,100365.06
2022-07-25T11:01:15.623Z,100359.38
2022-07-25T11:03:45.738Z,100363.34
2022-07-25T11:06:16.093Z,100362.38
2022-07-25T11:08:44.512Z,100359.94
2022-07-25T11:11:13.225Z,100362.19
2022-07-25T11:13:42.003Z,100366.16
2022-07-25T11:16:10.910Z,100353.56
2022-07-25T11:18:40.311Z,100356.56
2022-07-25T11:21:09.930Z,100348.56
2022-07-25T11:23:41.773Z,100352.00
2022-07-25T11:26:11.130Z,100352.06
2022-07-25T11:28:44.190Z,100351.25
2022-07-25T11:31:13.274Z,100343.56
2022-07-25T11:33:42.711Z,100344.31
2022-07-25T11:36:11.910Z,100345.34
2022-07-25T11:38:43.101Z,100345.38
2022-07-25T11:41:12.329Z,100329.63
2022-07-25T11:43:49.595Z,100339.78
2022-07-25T11:46:18.441Z,100329.66
2022-07-25T11:48:47.750Z,100328.56
2022-07-25T11:51:19.002Z,100314.78
2022-07-25T11:53:51.135Z,100319.44
2022-07-25T11:56:43.626Z,100313.28
2022-07-25T11:59:10.172Z,100316.19
2022-07-25T12:01:40.352Z,100311.22
2022-07-25T12:04:12.734Z,100310.00
2022-07-25T12:06:41.013Z,100305.88
2022-07-25T12:09:19.272Z,100307.94
2022-07-25T12:11:48.273Z,100316.44
2022-07-25T12:14:16.667Z,100311.88
2022-07-25T12:16:44.894Z,100331.03
2022-07-25T12:19:20.535Z,100322.75
2022-07-25T12:21:48.656Z,100312.00
2022-07-25T12:24:17.993Z,100319.16
2022-07-25T12:26:45.995Z,100310.34
2022-07-25T12:29:13.933Z,100321.63
2022-07-25T12:31:41.882Z,100327.78
2022-07-25T12:34:09.870Z,100323.84
2022-07-25T12:36:43.899Z,100319.94
2022-07-25T12:39:12.523Z,100327.16
2022-07-25T12:41:42.769Z,100330.78
2022-07-25T12:44:11.280Z,100331.38
2022-07-25T12:46:45.819Z,100322.13
2022-07-25T12:49:15.493Z,100323.31
2022-07-25T12:51:43.583Z,100330.38
2022-07-25T12:54:11.527Z,100329.16
2022-07-25T12:56:41.011Z,100321.94
2022-07-25T12:59:09.396Z,100327.38
2022-07-25T13:01:37.576Z,100325.72
2022-07-25T13:04:09.271Z,100324.19
2022-07-25T13:06:38.877Z,100322.22
2022-07-25T13:09:07.909Z,100327.53
2022-07-25T13:11:36.279Z,100323.88
2022-07-25T13:14:06.347Z,100321.34
2022-07-25T13:16:37.736Z,100321.59
2022-07-25T13:19:06.163Z,100323.19
2022-07-25T13:21:34.382Z,100322.97
2022-07-25T13:24:02.366Z,100317.03
2022-07-25T13:26:30.379Z,100313.72
2022-07-25T13:29:00.050Z,100310.81
2022-07-25T13:31:29.642Z,100313.88
2022-07-25T13:33:57.839Z,100312.00
2022-07-25T13:36:25.844Z,100319.63
2022-07-25T13:38:53.780Z,100317.38
2022-07-25T13:41:21.735Z,100324.44
2022-07-25T13:43:49.694Z,100320.94
2022-07-25T13:46:17.879Z,100327.28
2022-07-25T13:48:47.387Z,100327.41
2022-07-25T13:51:15.720Z,100319.34
2022-07-25T13:53:44.946Z,100312.00
2022-07-25T13:56:13.416Z,100319.13
2022-07-25T13:58:41.793Z,100317.44
2022-07-25T14:01:11.700Z,100324.44
2022-07-25T14:03:39.731Z,100334.38
2022-07-25T14:06:11.192Z,100340.69
2022-07-25T14:08:40.578Z,100342.97
2022-07-25T14:11:08.627Z,100348.00
2022-07-25T14:13:36.831Z,100346.66
2022-07-25T14:16:05.259Z,100339.47
2022-07-25T14:18:33.211Z,100360.59
2022-07-25T14:21:01.214Z,100367.00
2022-07-25T14:23:30.583Z,100375.78
2022-07-25T14:26:00.167Z,100381.09
2022-07-25T14:28:28.225Z,100404.13
2022-07-25T14:30:56.611Z,100391.06
2022-07-25T14:33:24.730Z,100396.84
2022-07-25T14:35:52.788Z,100392.72
2022-07-25T14:38:20.862Z,100387.34
2022-07-25T14:40:51.132Z,100379.09
2022-07-25T14:43:19.071Z,100393.56
2022-07-25T14:45:47.031Z,100401.50
2022-07-25T14:48:15.434Z,100414.63
2022-07-25T14:50:43.418Z,100413.84
2022-07-25T14:53:12.793Z,100419.47
2022-07-25T14:55:40.716Z,100429.09
2022-07-25T14:58:10.100Z,100443.03
2022-07-25T15:00:41.758Z,100442.81
2022-07-25T15:03:09.781Z,100441.72
2022-07-25T15:05:38.494Z,100427.03
2022-07-25T15:08:07.316Z,100418.19
2022-07-25T15:10:35.368Z,100418.28
2022-07-25T15:13:29.510Z,100439.34
2022-07-25T15:15:52.722Z,100423.75
2022-07-25T15:18:20.807Z,100417.13
2022-07-25T15:20:48.786Z,100409.06
2022-07-25T15:23:16.704Z,100420.94
2022-07-25T15:26:01.096Z,100446.38
2022-07-25T15:28:30.150Z,100483.22
2022-07-25T15:30:59.545Z,100532.53
2022-07-25T15:33:27.604Z,100525.72
2022-07-25T15:35:55.623Z,100463.31
2022-07-25T15:38:24.017Z,100541.47
2022-07-25T15:40:51.994Z,100498.75
2022-07-25T15:43:19.930Z,100510.22
2022-07-25T15:45:48.249Z,100499.53
2022-07-25T15:48:18.295Z,100500.00
2022-07-25T15:50:49.294Z,100494.44
2022-07-25T15:53:17.343Z,100524.28
2022-07-25T15:55:45.339Z,100526.50
2022-07-25T15:58:13.331Z,100510.53
2022-07-25T16:00:41.364Z,100508.72
2022-07-25T16:03:10.009Z,100499.91
2022-07-25T16:05:40.075Z,100494.81
2022-07-25T16:08:09.950Z,100494.88
2022-07-25T16:10:38.614Z,100502.28
2022-07-25T16:13:07.162Z,100512.22
2022-07-25T16:15:35.100Z,100520.97
2022-07-25T16:18:03.371Z,100535.19
2022-07-25T16:20:32.292Z,100540.28
2022-07-25T16:23:02.464Z,100532.81
2022-07-25T16:25:31.224Z,100524.16
2022-07-25T16:27:59.881Z,100524.50
2022-07-25T16:30:28.375Z,100521.50
2022-07-25T16:32:56.549Z,100518.56
2022-07-25T16:35:24.864Z,100520.09
2022-07-25T16:37:52.954Z,100515.47
2022-07-25T16:40:28.715Z,100518.31
2022-07-25T16:42:59.748Z,100516.16
2022-07-25T16:45:28.326Z,100512.88
2022-07-25T16:47:56.313Z,100515.47
2022-07-25T16:50:24.270Z,100508.81
2022-07-25T16:52:53.692Z,100516.41
2022-07-25T16:55:23.129Z,100517.53
2022-07-25T16:57:51.435Z,100524.00
2022-07-25T17:00:20.214Z,100530.81
2022-07-25T17:02:48.175Z,100534.56
2022-07-25T17:05:16.356Z,100537.88
2022-07-25T17:07:44.417Z,100540.34
2022-07-25T17:10:12.425Z,100547.34
2022-07-25T17:12:41.741Z,100554.91
2022-07-25T17:15:10.858Z,100548.06
2022-07-25T17:17:38.816Z,100549.81
2022-07-25T17:20:07.892Z,100544.56
2022-07-25T17:22:35.935Z,100551.25
2022-07-25T17:25:03.991Z,100554.31
2022-07-25T17:27:32.109Z,100536.13
2022-07-25T17:30:01.491Z,100542.34
2022-07-25T17:32:30.158Z,100538.81
2022-07-25T17:34:58.577Z,100533.81
2022-07-25T17:37:27.759Z,100538.19
2022-07-25T17:39:55.950Z,100540.56
2022-07-25T17:42:24.042Z,100547.53
2022-07-25T17:44:52.359Z,100542.69
2022-07-25T17:47:21.868Z,100547.56
2022-07-25T17:49:51.085Z,100557.03
2022-07-25T17:52:19.198Z,100550.25
2022-07-25T17:54:47.119Z,100540.28
2022-07-25T17:57:15.081Z,100551.75
2022-07-25T17:59:43.037Z,100554.66
2022-07-25T18:02:11.321Z,100550.25
2022-07-25T18:04:40.718Z,100556.13
2022-07-25T18:07:08.864Z,100548.03
2022-07-25T18:09:36.980Z,100545.41
2022-07-25T18:12:05.154Z,100539.63
2022-07-25T18:14:33.948Z,100545.34
2022-07-25T18:17:01.933Z,100556.34
2022-07-25T18:19:30.003Z,100556.16
2022-07-25T18:21:59.546Z,100555.47
2022-07-25T18:24:29.483Z,100555.31
2022-07-25T18:26:58.009Z,100551.44
2022-07-25T18:29:26.087Z,100561.81
2022-07-25T18:31:54.074Z,100559.97
2022-07-25T18:34:22.027Z,100557.94
2022-07-25T18:36:50.109Z,100549.06
2022-07-25T18:39:19.447Z,100549.16
2022-07-25T18:41:47.371Z,100555.28
2022-07-25T18:44:15.448Z,100550.69
2022-07-25T18:46:45.675Z,100550.88
2022-07-25T18:49:13.930Z,100543.88
2022-07-25T18:51:42.026Z,100547.13
2022-07-25T18:54:10.333Z,100545.84
2022-07-25T18:56:40.032Z,100541.38
2022-07-25T18:59:08.364Z,100544.94
2022-07-25T19:01:37.393Z,100560.81
2022-07-25T19:04:06.208Z,100562.56
2022-07-25T19:06:34.447Z,100557.06
2022-07-25T19:09:02.430Z,100560.69
2022-07-25T19:11:30.418Z,100566.78
2022-07-25T19:13:59.883Z,100574.00
2022-07-25T19:16:27.923Z,100579.81
2022-07-25T19:18:56.020Z,100585.94
2022-07-25T19:21:24.058Z,100595.69
2022-07-25T19:23:52.190Z,100594.22
2022-07-25T19:26:21.065Z,100584.03
2022-07-25T19:28:49.529Z,100590.56
2022-07-25T19:31:19.045Z,100609.03
2022-07-25T19:33:47.074Z,100618.25
2022-07-25T19:36:15.138Z,100624.91
2022-07-25T19:38:43.190Z,100615.56
2022-07-25T19:41:11.354Z,100615.88
2022-07-25T19:43:39.349Z,100619.03
2022-07-25T19:46:07.652Z,100622.63
2022-07-25T19:48:37.082Z,100628.53
2022-07-25T19:51:05.486Z,100631.09
2022-07-25T19:53:33.670Z,100634.53
2022-07-25T19:56:02.191Z,100637.72
2022-07-25T19:58:31.482Z,100639.13
2022-07-25T20:01:01.109Z,100644.16
2022-07-25T20:03:29.114Z,100645.03
2022-07-25T20:05:58.444Z,100649.03
2022-07-25T20:08:26.407Z,100643.03
2022-07-25T20:10:54.354Z,100651.97
2022-07-25T20:13:22.367Z,100657.03
2022-07-25T20:15:50.305Z,100665.34
2022-07-25T20:18:19.763Z,100660.38
2022-07-25T20:20:48.043Z,100663.16
2022-07-25T20:23:17.441Z,100668.41
2022-07-25T20:25:45.451Z,100663.72
2022-07-25T20:28:13.410Z,100666.78
2022-07-25T20:30:41.468Z,100671.81
2022-07-25T20:33:10.002Z,100674.88
2022-07-25T20:35:38.810Z,100673.41
2022-07-25T20:38:09.480Z,100666.00
2022-07-25T20:40:46.370Z,100678.19
2022-07-25T20:43:16.440Z,100669.56
2022-07-25T20:45:44.487Z,100673.84
2022-07-25T20:48:13.067Z,100665.38
2022-07-25T20:50:41.281Z,100667.41
2022-07-25T20:53:10.118Z,100665.63
2022-07-25T20:55:39.681Z,100669.28
2022-07-25T20:58:07.942Z,100671.47
2022-07-25T21:00:36.164Z,100677.88
2022-07-25T21:03:04.086Z,100679.03
2022-07-25T21:05:37.775Z,100672.59
2022-07-25T21:08:06.227Z,100666.28
2022-07-25T21:10:34.234Z,100667.94
2022-07-25T21:13:03.863Z,100675.34
2022-07-25T21:15:32.098Z,100670.75
2022-07-25T21:18:00.765Z,100673.03
2022-07-25T21:20:28.895Z,100671.00
2022-07-25T21:22:56.844Z,100674.66
2022-07-25T21:25:24.808Z,100681.84
2022-07-25T21:27:52.825Z,100686.78
2022-07-25T21:30:22.217Z,100689.31
2022-07-25T21:32:50.144Z,100693.13
2022-07-25T21:35:18.585Z,100683.09
2022-07-25T21:37:46.579Z,100686.63
2022-07-25T21:40:14.700Z,100690.94
2022-07-25T21:42:43.382Z,100685.25
2022-07-25T21:45:12.307Z,100689.94
2022-07-25T21:47:41.657Z,100692.94
2022-07-25T21:50:28.166Z,100692.53
2022-07-25T21:52:56.145Z,100700.19
2022-07-25T21:55:24.251Z,100696.97
2022-07-25T21:57:52.532Z,100689.72
2022-07-25T22:00:21.588Z,100698.56
2022-07-25T22:02:51.148Z,100688.59
2022-07-25T22:05:19.981Z,100680.41
2022-07-25T22:07:48.772Z,100678.06
2022-07-25T22:10:17.954Z,100683.75
2022-07-25T22:12:46.315Z,100688.66
2022-07-25T22:15:14.672Z,100681.94
2022-07-25T22:17:48.470Z,100679.31
2022-07-25T22:20:19.806Z,100670.78
2022-07-25T22:22:48.362Z,100679.72
2022-07-25T22:25:16.411Z,100679.19
2022-07-25T22:27:44.822Z,100682.47
2022-07-25T22:30:18.207Z,100681.38
2022-07-25T22:32:46.727Z,100680.06
2022-07-25T22:35:15.146Z,100681.59
2022-07-25T22:37:44.593Z,100676.06
2022-07-25T22:40:13.558Z,100684.81
2022-07-25T22:42:41.539Z,100688.41
2022-07-25T22:45:10.318Z,100683.94
2022-07-25T22:47:38.322Z,100688.13
2022-07-25T22:50:07.504Z,100686.41
2022-07-25T22:52:36.037Z,100690.09
2022-07-25T22:55:06.011Z,100688.69
2022-07-25T22:57:37.151Z,100685.16
2022-07-25T23:00:08.220Z,100691.88
2022-07-25T23:02:36.303Z,100696.28
2022-07-25T23:05:04.829Z,100695.03
2022-07-25T23:07:32.889Z,100696.44
2022-07-25T23:10:00.834Z,100693.47
2022-07-25T23:12:30.181Z,100700.22
2022-07-25T23:14:58.113Z,100686.59
2022-07-25T23:17:26.166Z,100699.41
2022-07-25T23:19:55.822Z,100700.13
2022-07-25T23:22:25.266Z,100698.53
2022-07-25T23:24:53.434Z,100700.19
2022-07-25T23:27:21.484Z,100701.84
2022-07-25T23:29:50.822Z,100698.09
2022-07-25T23:32:18.951Z,100704.56
2022-07-25T23:34:46.951Z,100711.66
2022-07-25T23:37:15.099Z,100708.56
2022-07-25T23:39:43.033Z,100713.59
2022-07-25T23:42:11.055Z,100711.19
2022-07-25T23:44:39.375Z,100725.78
2022-07-25T23:47:10.134Z,100723.25
2022-07-25T23:49:38.749Z,100725.25
2022-07-25T23:52:07.145Z,100726.00
2022-07-25T23:54:35.828Z,100716.63
2022-07-25T23:57:03.964Z,100718.16
2022-07-25T23:59:31.954Z,100718.91
